sensor_id;sensor_type;location;lat;lon;timestamp;P1;durP1;ratioP1;P2;durP2;ratioP2
61085;SDS011;46967;48.876;2.136;2023-08-17T00:00:41;4.30;;;2.67;;
61085;SDS011;46967;48.876;2.136;2023-08-17T00:03:06;4.85;;;2.90;;
61085;SDS011;46967;48.876;2.136;2023-08-17T00:05:32;4.68;;;3.10;;
61085;SDS011;46967;48.876;2.136;2023-08-17T00:07:59;4.75;;;2.70;;
61085;SDS011;46967;48.876;2.136;2023-08-17T00:10:26;5.55;;;3.15;;
61085;SDS011;46967;48.876;2.136;2023-08-17T00:12:51;5.70;;;2.78;;
61085;SDS011;46967;48.876;2.136;2023-08-17T00:15:17;4.13;;;2.83;;
61085;SDS011;46967;48.876;2.136;2023-08-17T00:17:42;7.38;;;3.13;;
61085;SDS011;46967;48.876;2.136;2023-08-17T00:20:07;4.28;;;2.70;;
61085;SDS011;46967;48.876;2.136;2023-08-17T00:22:34;5.90;;;3.00;;
61085;SDS011;46967;48.876;2.136;2023-08-17T00:25:00;3.97;;;3.00;;
61085;SDS011;46967;48.876;2.136;2023-08-17T00:27:26;7.05;;;2.83;;
61085;SDS011;46967;48.876;2.136;2023-08-17T00:29:51;5.88;;;2.92;;
61085;SDS011;46967;48.876;2.136;2023-08-17T00:32:16;6.07;;;2.97;;
61085;SDS011;46967;48.876;2.136;2023-08-17T00:34:42;8.02;;;3.58;;
61085;SDS011;46967;48.876;2.136;2023-08-17T00:37:07;5.07;;;3.00;;
61085;SDS011;46967;48.876;2.136;2023-08-17T00:39:33;5.00;;;3.05;;
61085;SDS011;46967;48.876;2.136;2023-08-17T00:41:58;4.25;;;3.03;;
61085;SDS011;46967;48.876;2.136;2023-08-17T00:44:24;3.95;;;2.78;;
61085;SDS011;46967;48.876;2.136;2023-08-17T00:46:49;10.05;;;3.42;;
61085;SDS011;46967;48.876;2.136;2023-08-17T00:49:14;7.47;;;3.35;;
61085;SDS011;46967;48.876;2.136;2023-08-17T00:51:40;3.88;;;3.10;;
61085;SDS011;46967;48.876;2.136;2023-08-17T00:54:06;6.63;;;2.80;;
61085;SDS011;46967;48.876;2.136;2023-08-17T00:56:32;4.63;;;3.05;;
61085;SDS011;46967;48.876;2.136;2023-08-17T00:58:58;3.55;;;2.67;;
61085;SDS011;46967;48.876;2.136;2023-08-17T01:01:23;4.20;;;2.92;;
61085;SDS011;46967;48.876;2.136;2023-08-17T01:03:49;3.60;;;2.63;;
61085;SDS011;46967;48.876;2.136;2023-08-17T01:06:14;7.07;;;2.90;;
61085;SDS011;46967;48.876;2.136;2023-08-17T01:08:39;3.53;;;2.65;;
61085;SDS011;46967;48.876;2.136;2023-08-17T01:11:29;4.72;;;2.80;;
61085;SDS011;46967;48.876;2.136;2023-08-17T01:14:49;4.75;;;2.80;;
61085;SDS011;46967;48.876;2.136;2023-08-17T01:17:03;4.40;;;2.80;;
61085;SDS011;46967;48.876;2.136;2023-08-17T01:19:36;5.55;;;2.97;;
61085;SDS011;46967;48.876;2.136;2023-08-17T01:22:03;4.63;;;2.80;;
61085;SDS011;46967;48.876;2.136;2023-08-17T01:24:30;3.55;;;2.90;;
61085;SDS011;46967;48.876;2.136;2023-08-17T01:26:55;7.15;;;3.17;;
61085;SDS011;46967;48.876;2.136;2023-08-17T01:29:21;5.07;;;3.15;;
61085;SDS011;46967;48.876;2.136;2023-08-17T01:31:49;4.70;;;3.15;;
61085;SDS011;46967;48.876;2.136;2023-08-17T01:34:28;5.32;;;3.00;;
61085;SDS011;46967;48.876;2.136;2023-08-17T01:36:57;5.07;;;3.63;;
61085;SDS011;46967;48.876;2.136;2023-08-17T01:39:30;5.43;;;3.38;;
61085;SDS011;46967;48.876;2.136;2023-08-17T01:42:02;5.10;;;3.17;;
61085;SDS011;46967;48.876;2.136;2023-08-17T01:44:29;4.45;;;3.30;;
61085;SDS011;46967;48.876;2.136;2023-08-17T01:46:55;3.55;;;3.00;;
61085;SDS011;46967;48.876;2.136;2023-08-17T01:49:20;5.15;;;3.53;;
61085;SDS011;46967;48.876;2.136;2023-08-17T01:51:46;5.40;;;3.20;;
61085;SDS011;46967;48.876;2.136;2023-08-17T01:54:11;5.40;;;3.35;;
61085;SDS011;46967;48.876;2.136;2023-08-17T01:56:36;4.63;;;3.00;;
61085;SDS011;46967;48.876;2.136;2023-08-17T01:59:02;6.97;;;3.33;;
61085;SDS011;46967;48.876;2.136;2023-08-17T02:01:27;6.85;;;3.60;;
61085;SDS011;46967;48.876;2.136;2023-08-17T02:03:53;4.70;;;3.33;;
61085;SDS011;46967;48.876;2.136;2023-08-17T02:06:18;7.10;;;3.47;;
61085;SDS011;46967;48.876;2.136;2023-08-17T02:08:44;5.90;;;3.20;;
61085;SDS011;46967;48.876;2.136;2023-08-17T02:11:10;4.40;;;2.95;;
61085;SDS011;46967;48.876;2.136;2023-08-17T02:13:35;4.70;;;3.28;;
61085;SDS011;46967;48.876;2.136;2023-08-17T02:16:02;6.57;;;3.20;;
61085;SDS011;46967;48.876;2.136;2023-08-17T02:18:30;3.97;;;3.40;;
61085;SDS011;46967;48.876;2.136;2023-08-17T02:20:58;5.32;;;3.13;;
61085;SDS011;46967;48.876;2.136;2023-08-17T02:23:23;6.43;;;3.25;;
61085;SDS011;46967;48.876;2.136;2023-08-17T02:25:48;5.68;;;3.50;;
61085;SDS011;46967;48.876;2.136;2023-08-17T02:28:14;6.82;;;4.07;;
61085;SDS011;46967;48.876;2.136;2023-08-17T02:30:39;4.82;;;3.45;;
61085;SDS011;46967;48.876;2.136;2023-08-17T02:33:04;3.72;;;2.78;;
61085;SDS011;46967;48.876;2.136;2023-08-17T02:35:30;6.45;;;3.47;;
61085;SDS011;46967;48.876;2.136;2023-08-17T02:37:55;5.85;;;3.30;;
61085;SDS011;46967;48.876;2.136;2023-08-17T02:40:21;5.10;;;3.25;;
61085;SDS011;46967;48.876;2.136;2023-08-17T02:42:46;5.00;;;3.47;;
61085;SDS011;46967;48.876;2.136;2023-08-17T02:45:12;10.88;;;4.20;;
61085;SDS011;46967;48.876;2.136;2023-08-17T02:47:37;11.70;;;4.25;;
61085;SDS011;46967;48.876;2.136;2023-08-17T02:50:03;6.10;;;4.07;;
61085;SDS011;46967;48.876;2.136;2023-08-17T02:52:28;6.30;;;3.80;;
61085;SDS011;46967;48.876;2.136;2023-08-17T02:54:54;6.55;;;3.97;;
61085;SDS011;46967;48.876;2.136;2023-08-17T02:57:19;5.00;;;3.72;;
61085;SDS011;46967;48.876;2.136;2023-08-17T02:59:45;8.05;;;4.32;;
61085;SDS011;46967;48.876;2.136;2023-08-17T03:02:10;7.90;;;3.75;;
61085;SDS011;46967;48.876;2.136;2023-08-17T03:04:36;4.55;;;3.65;;
61085;SDS011;46967;48.876;2.136;2023-08-17T03:07:01;6.50;;;3.35;;
61085;SDS011;46967;48.876;2.136;2023-08-17T03:09:26;5.40;;;3.35;;
61085;SDS011;46967;48.876;2.136;2023-08-17T03:11:52;8.13;;;3.88;;
61085;SDS011;46967;48.876;2.136;2023-08-17T03:14:17;6.43;;;3.65;;
61085;SDS011;46967;48.876;2.136;2023-08-17T03:16:43;5.70;;;3.50;;
61085;SDS011;46967;48.876;2.136;2023-08-17T03:19:08;5.38;;;3.20;;
61085;SDS011;46967;48.876;2.136;2023-08-17T03:21:36;7.43;;;3.80;;
61085;SDS011;46967;48.876;2.136;2023-08-17T03:24:01;9.13;;;5.03;;
61085;SDS011;46967;48.876;2.136;2023-08-17T03:26:26;9.68;;;5.88;;
61085;SDS011;46967;48.876;2.136;2023-08-17T03:28:52;9.90;;;5.60;;
61085;SDS011;46967;48.876;2.136;2023-08-17T03:31:17;10.35;;;5.55;;
61085;SDS011;46967;48.876;2.136;2023-08-17T03:33:46;8.57;;;6.65;;
61085;SDS011;46967;48.876;2.136;2023-08-17T03:36:11;10.07;;;6.35;;
61085;SDS011;46967;48.876;2.136;2023-08-17T03:38:36;11.98;;;6.75;;
61085;SDS011;46967;48.876;2.136;2023-08-17T03:41:04;11.00;;;6.00;;
61085;SDS011;46967;48.876;2.136;2023-08-17T03:43:30;11.38;;;6.03;;
61085;SDS011;46967;48.876;2.136;2023-08-17T03:45:55;9.75;;;6.40;;
61085;SDS011;46967;48.876;2.136;2023-08-17T03:48:20;11.23;;;6.20;;
61085;SDS011;46967;48.876;2.136;2023-08-17T03:50:50;11.75;;;7.50;;
61085;SDS011;46967;48.876;2.136;2023-08-17T03:53:16;12.82;;;5.38;;
61085;SDS011;46967;48.876;2.136;2023-08-17T03:55:45;8.65;;;5.68;;
61085;SDS011;46967;48.876;2.136;2023-08-17T03:58:11;10.20;;;5.15;;
61085;SDS011;46967;48.876;2.136;2023-08-17T04:00:36;9.98;;;5.50;;
61085;SDS011;46967;48.876;2.136;2023-08-17T04:03:02;9.63;;;6.03;;
61085;SDS011;46967;48.876;2.136;2023-08-17T04:05:27;11.75;;;5.57;;
61085;SDS011;46967;48.876;2.136;2023-08-17T04:07:53;10.40;;;5.57;;
61085;SDS011;46967;48.876;2.136;2023-08-17T04:10:18;8.73;;;5.78;;
61085;SDS011;46967;48.876;2.136;2023-08-17T04:12:43;7.57;;;5.32;;
61085;SDS011;46967;48.876;2.136;2023-08-17T04:15:09;11.88;;;6.68;;
61085;SDS011;46967;48.876;2.136;2023-08-17T04:17:34;9.90;;;6.22;;
61085;SDS011;46967;48.876;2.136;2023-08-17T04:20:00;10.52;;;6.00;;
61085;SDS011;46967;48.876;2.136;2023-08-17T04:22:25;14.38;;;6.45;;
61085;SDS011;46967;48.876;2.136;2023-08-17T04:24:50;12.93;;;6.32;;
61085;SDS011;46967;48.876;2.136;2023-08-17T04:27:15;7.35;;;5.50;;
61085;SDS011;46967;48.876;2.136;2023-08-17T04:29:41;13.05;;;6.15;;
61085;SDS011;46967;48.876;2.136;2023-08-17T04:32:07;12.10;;;7.07;;
61085;SDS011;46967;48.876;2.136;2023-08-17T04:34:32;12.68;;;7.97;;
61085;SDS011;46967;48.876;2.136;2023-08-17T04:36:58;11.48;;;6.68;;
61085;SDS011;46967;48.876;2.136;2023-08-17T04:39:23;13.48;;;7.40;;
61085;SDS011;46967;48.876;2.136;2023-08-17T04:41:48;12.55;;;7.65;;
61085;SDS011;46967;48.876;2.136;2023-08-17T04:44:14;11.60;;;7.43;;
61085;SDS011;46967;48.876;2.136;2023-08-17T04:46:39;10.38;;;7.13;;
61085;SDS011;46967;48.876;2.136;2023-08-17T04:49:04;9.18;;;6.72;;
61085;SDS011;46967;48.876;2.136;2023-08-17T04:51:30;13.48;;;7.10;;
61085;SDS011;46967;48.876;2.136;2023-08-17T04:53:55;14.13;;;7.80;;
61085;SDS011;46967;48.876;2.136;2023-08-17T04:56:20;11.80;;;7.38;;
61085;SDS011;46967;48.876;2.136;2023-08-17T04:58:46;16.67;;;7.15;;
61085;SDS011;46967;48.876;2.136;2023-08-17T05:01:11;16.00;;;7.07;;
61085;SDS011;46967;48.876;2.136;2023-08-17T05:03:36;9.27;;;6.90;;
61085;SDS011;46967;48.876;2.136;2023-08-17T05:06:02;11.65;;;7.55;;
61085;SDS011;46967;48.876;2.136;2023-08-17T05:08:28;14.77;;;7.97;;
61085;SDS011;46967;48.876;2.136;2023-08-17T05:10:53;11.75;;;7.38;;
61085;SDS011;46967;48.876;2.136;2023-08-17T05:13:19;12.85;;;7.72;;
61085;SDS011;46967;48.876;2.136;2023-08-17T05:15:44;12.13;;;7.15;;
61085;SDS011;46967;48.876;2.136;2023-08-17T05:18:10;13.60;;;6.93;;
61085;SDS011;46967;48.876;2.136;2023-08-17T05:20:35;12.02;;;6.25;;
61085;SDS011;46967;48.876;2.136;2023-08-17T05:23:00;14.60;;;7.03;;
61085;SDS011;46967;48.876;2.136;2023-08-17T05:25:26;11.68;;;6.85;;
61085;SDS011;46967;48.876;2.136;2023-08-17T05:27:51;11.32;;;6.72;;
61085;SDS011;46967;48.876;2.136;2023-08-17T05:30:17;14.88;;;7.32;;
61085;SDS011;46967;48.876;2.136;2023-08-17T05:32:42;12.30;;;6.85;;
61085;SDS011;46967;48.876;2.136;2023-08-17T05:35:08;12.30;;;6.90;;
61085;SDS011;46967;48.876;2.136;2023-08-17T05:37:33;12.25;;;6.80;;
61085;SDS011;46967;48.876;2.136;2023-08-17T05:39:58;13.63;;;8.35;;
61085;SDS011;46967;48.876;2.136;2023-08-17T05:42:24;10.63;;;6.78;;
61085;SDS011;46967;48.876;2.136;2023-08-17T05:44:49;11.95;;;6.72;;
61085;SDS011;46967;48.876;2.136;2023-08-17T05:47:14;14.05;;;8.38;;
61085;SDS011;46967;48.876;2.136;2023-08-17T05:49:42;10.02;;;6.95;;
61085;SDS011;46967;48.876;2.136;2023-08-17T05:52:08;13.00;;;6.97;;
61085;SDS011;46967;48.876;2.136;2023-08-17T05:54:33;14.18;;;7.03;;
61085;SDS011;46967;48.876;2.136;2023-08-17T05:56:58;11.98;;;8.05;;
61085;SDS011;46967;48.876;2.136;2023-08-17T05:59:24;16.90;;;8.10;;
61085;SDS011;46967;48.876;2.136;2023-08-17T06:01:49;11.98;;;7.88;;
61085;SDS011;46967;48.876;2.136;2023-08-17T06:04:14;14.68;;;8.38;;
61085;SDS011;46967;48.876;2.136;2023-08-17T06:06:40;15.50;;;8.52;;
61085;SDS011;46967;48.876;2.136;2023-08-17T06:09:05;17.15;;;9.20;;
61085;SDS011;46967;48.876;2.136;2023-08-17T06:11:32;12.55;;;8.57;;
61085;SDS011;46967;48.876;2.136;2023-08-17T06:13:58;19.70;;;9.57;;
61085;SDS011;46967;48.876;2.136;2023-08-17T06:16:23;18.38;;;10.52;;
61085;SDS011;46967;48.876;2.136;2023-08-17T06:18:48;20.52;;;10.98;;
61085;SDS011;46967;48.876;2.136;2023-08-17T06:21:14;21.40;;;11.05;;
61085;SDS011;46967;48.876;2.136;2023-08-17T06:23:39;18.85;;;10.88;;
61085;SDS011;46967;48.876;2.136;2023-08-17T06:26:05;16.85;;;9.40;;
61085;SDS011;46967;48.876;2.136;2023-08-17T06:28:30;17.55;;;7.50;;
61085;SDS011;46967;48.876;2.136;2023-08-17T06:30:55;11.15;;;7.30;;
61085;SDS011;46967;48.876;2.136;2023-08-17T06:33:21;12.23;;;7.25;;
61085;SDS011;46967;48.876;2.136;2023-08-17T06:35:46;11.63;;;7.95;;
61085;SDS011;46967;48.876;2.136;2023-08-17T06:38:12;11.57;;;7.35;;
61085;SDS011;46967;48.876;2.136;2023-08-17T06:40:37;14.20;;;7.85;;
61085;SDS011;46967;48.876;2.136;2023-08-17T06:43:03;12.88;;;7.53;;
61085;SDS011;46967;48.876;2.136;2023-08-17T06:45:28;15.43;;;9.63;;
61085;SDS011;46967;48.876;2.136;2023-08-17T06:47:54;10.98;;;7.72;;
61085;SDS011;46967;48.876;2.136;2023-08-17T06:50:19;15.85;;;8.75;;
61085;SDS011;46967;48.876;2.136;2023-08-17T06:52:45;16.08;;;9.63;;
61085;SDS011;46967;48.876;2.136;2023-08-17T06:55:10;18.30;;;10.27;;
61085;SDS011;46967;48.876;2.136;2023-08-17T06:57:35;18.60;;;10.27;;
61085;SDS011;46967;48.876;2.136;2023-08-17T07:00:01;15.88;;;9.88;;
61085;SDS011;46967;48.876;2.136;2023-08-17T07:02:30;11.52;;;8.73;;
61085;SDS011;46967;48.876;2.136;2023-08-17T07:04:55;14.65;;;9.05;;
61085;SDS011;46967;48.876;2.136;2023-08-17T07:07:20;14.80;;;10.27;;
61085;SDS011;46967;48.876;2.136;2023-08-17T07:09:46;19.52;;;9.13;;
61085;SDS011;46967;48.876;2.136;2023-08-17T07:12:11;21.75;;;10.65;;
61085;SDS011;46967;48.876;2.136;2023-08-17T07:14:38;17.92;;;11.65;;
61085;SDS011;46967;48.876;2.136;2023-08-17T07:17:03;18.10;;;10.35;;
61085;SDS011;46967;48.876;2.136;2023-08-17T07:19:28;16.50;;;10.48;;
61085;SDS011;46967;48.876;2.136;2023-08-17T07:21:54;15.23;;;9.88;;
61085;SDS011;46967;48.876;2.136;2023-08-17T07:24:19;17.48;;;10.60;;
61085;SDS011;46967;48.876;2.136;2023-08-17T07:26:44;15.90;;;9.25;;
61085;SDS011;46967;48.876;2.136;2023-08-17T07:29:10;19.55;;;11.15;;
61085;SDS011;46967;48.876;2.136;2023-08-17T07:31:36;15.68;;;10.20;;
61085;SDS011;46967;48.876;2.136;2023-08-17T07:34:03;17.55;;;11.43;;
61085;SDS011;46967;48.876;2.136;2023-08-17T07:36:29;19.33;;;13.32;;
61085;SDS011;46967;48.876;2.136;2023-08-17T07:38:54;19.25;;;11.82;;
61085;SDS011;46967;48.876;2.136;2023-08-17T07:41:20;20.05;;;11.90;;
61085;SDS011;46967;48.876;2.136;2023-08-17T07:43:45;15.93;;;11.52;;
61085;SDS011;46967;48.876;2.136;2023-08-17T07:46:10;23.92;;;13.02;;
61085;SDS011;46967;48.876;2.136;2023-08-17T07:48:36;19.67;;;12.75;;
61085;SDS011;46967;48.876;2.136;2023-08-17T07:51:01;22.15;;;15.30;;
61085;SDS011;46967;48.876;2.136;2023-08-17T07:53:26;24.17;;;13.27;;
61085;SDS011;46967;48.876;2.136;2023-08-17T07:55:52;24.38;;;14.38;;
61085;SDS011;46967;48.876;2.136;2023-08-17T07:58:17;26.60;;;14.60;;
61085;SDS011;46967;48.876;2.136;2023-08-17T08:00:42;19.70;;;12.60;;
61085;SDS011;46967;48.876;2.136;2023-08-17T08:03:08;21.90;;;13.80;;
61085;SDS011;46967;48.876;2.136;2023-08-17T08:05:33;18.40;;;12.70;;
61085;SDS011;46967;48.876;2.136;2023-08-17T08:07:58;20.75;;;13.63;;
61085;SDS011;46967;48.876;2.136;2023-08-17T08:10:24;17.98;;;12.82;;
61085;SDS011;46967;48.876;2.136;2023-08-17T08:12:49;21.58;;;11.90;;
61085;SDS011;46967;48.876;2.136;2023-08-17T08:15:14;21.98;;;12.07;;
61085;SDS011;46967;48.876;2.136;2023-08-17T08:17:40;23.65;;;11.25;;
61085;SDS011;46967;48.876;2.136;2023-08-17T08:20:05;17.95;;;10.35;;
61085;SDS011;46967;48.876;2.136;2023-08-17T08:22:31;17.15;;;10.95;;
61085;SDS011;46967;48.876;2.136;2023-08-17T08:24:57;17.98;;;10.70;;
61085;SDS011;46967;48.876;2.136;2023-08-17T08:27:23;19.75;;;11.75;;
61085;SDS011;46967;48.876;2.136;2023-08-17T08:29:48;14.98;;;10.55;;
61085;SDS011;46967;48.876;2.136;2023-08-17T08:32:13;12.60;;;9.95;;
61085;SDS011;46967;48.876;2.136;2023-08-17T08:34:39;16.60;;;10.70;;
61085;SDS011;46967;48.876;2.136;2023-08-17T08:37:04;15.95;;;9.32;;
61085;SDS011;46967;48.876;2.136;2023-08-17T08:39:29;14.93;;;9.10;;
61085;SDS011;46967;48.876;2.136;2023-08-17T08:41:55;17.15;;;10.45;;
61085;SDS011;46967;48.876;2.136;2023-08-17T08:44:20;20.55;;;10.43;;
61085;SDS011;46967;48.876;2.136;2023-08-17T08:46:46;13.45;;;8.38;;
61085;SDS011;46967;48.876;2.136;2023-08-17T08:49:13;11.70;;;8.38;;
61085;SDS011;46967;48.876;2.136;2023-08-17T08:51:44;14.32;;;8.68;;
61085;SDS011;46967;48.876;2.136;2023-08-17T08:54:13;13.60;;;8.07;;
61085;SDS011;46967;48.876;2.136;2023-08-17T08:56:43;14.77;;;8.05;;
61085;SDS011;46967;48.876;2.136;2023-08-17T08:59:11;15.23;;;8.93;;
61085;SDS011;46967;48.876;2.136;2023-08-17T09:01:36;13.48;;;8.13;;
61085;SDS011;46967;48.876;2.136;2023-08-17T09:04:03;11.98;;;7.60;;
61085;SDS011;46967;48.876;2.136;2023-08-17T09:06:29;18.05;;;7.75;;
61085;SDS011;46967;48.876;2.136;2023-08-17T09:08:59;12.95;;;8.38;;
61085;SDS011;46967;48.876;2.136;2023-08-17T09:11:26;13.20;;;8.15;;
61085;SDS011;46967;48.876;2.136;2023-08-17T09:13:52;14.57;;;8.57;;
61085;SDS011;46967;48.876;2.136;2023-08-17T09:16:18;13.43;;;9.25;;
61085;SDS011;46967;48.876;2.136;2023-08-17T09:18:43;14.20;;;8.18;;
61085;SDS011;46967;48.876;2.136;2023-08-17T09:21:09;9.90;;;7.18;;
61085;SDS011;46967;48.876;2.136;2023-08-17T09:23:49;10.27;;;6.75;;
61085;SDS011;46967;48.876;2.136;2023-08-17T09:26:17;12.30;;;7.25;;
61085;SDS011;46967;48.876;2.136;2023-08-17T09:28:45;11.18;;;8.40;;
61085;SDS011;46967;48.876;2.136;2023-08-17T09:31:10;16.10;;;9.10;;
61085;SDS011;46967;48.876;2.136;2023-08-17T09:33:36;18.83;;;8.52;;
61085;SDS011;46967;48.876;2.136;2023-08-17T09:36:02;11.63;;;8.30;;
61085;SDS011;46967;48.876;2.136;2023-08-17T09:38:27;13.80;;;8.32;;
61085;SDS011;46967;48.876;2.136;2023-08-17T09:40:53;16.55;;;7.78;;
61085;SDS011;46967;48.876;2.136;2023-08-17T09:43:19;14.10;;;9.07;;
61085;SDS011;46967;48.876;2.136;2023-08-17T09:45:48;13.15;;;7.75;;
61085;SDS011;46967;48.876;2.136;2023-08-17T09:48:17;13.82;;;8.55;;
61085;SDS011;46967;48.876;2.136;2023-08-17T09:50:44;8.68;;;6.90;;
61085;SDS011;46967;48.876;2.136;2023-08-17T09:53:14;15.82;;;9.55;;
61085;SDS011;46967;48.876;2.136;2023-08-17T09:55:41;14.35;;;8.20;;
61085;SDS011;46967;48.876;2.136;2023-08-17T09:58:08;16.58;;;7.97;;
61085;SDS011;46967;48.876;2.136;2023-08-17T10:00:33;11.00;;;7.32;;
61085;SDS011;46967;48.876;2.136;2023-08-17T10:03:01;13.57;;;7.38;;
61085;SDS011;46967;48.876;2.136;2023-08-17T10:05:28;14.40;;;7.80;;
61085;SDS011;46967;48.876;2.136;2023-08-17T10:10:26;9.63;;;6.13;;
61085;SDS011;46967;48.876;2.136;2023-08-17T10:21:56;12.52;;;6.70;;
61085;SDS011;46967;48.876;2.136;2023-08-17T10:24:33;13.63;;;6.07;;
61085;SDS011;46967;48.876;2.136;2023-08-17T10:27:01;7.25;;;4.80;;
61085;SDS011;46967;48.876;2.136;2023-08-17T10:29:28;9.73;;;4.80;;
61085;SDS011;46967;48.876;2.136;2023-08-17T10:31:54;11.38;;;5.35;;
61085;SDS011;46967;48.876;2.136;2023-08-17T10:34:19;12.23;;;5.38;;
61085;SDS011;46967;48.876;2.136;2023-08-17T10:36:45;7.22;;;5.10;;
61085;SDS011;46967;48.876;2.136;2023-08-17T10:41:48;7.13;;;4.00;;
61085;SDS011;46967;48.876;2.136;2023-08-17T10:44:16;8.68;;;4.90;;
61085;SDS011;46967;48.876;2.136;2023-08-17T10:46:43;8.07;;;4.88;;
61085;SDS011;46967;48.876;2.136;2023-08-17T10:49:25;8.07;;;5.15;;
61085;SDS011;46967;48.876;2.136;2023-08-17T10:52:01;6.57;;;4.72;;
61085;SDS011;46967;48.876;2.136;2023-08-17T10:54:35;8.43;;;5.57;;
61085;SDS011;46967;48.876;2.136;2023-08-17T10:57:24;8.93;;;6.00;;
61085;SDS011;46967;48.876;2.136;2023-08-17T11:02:40;7.15;;;4.40;;
61085;SDS011;46967;48.876;2.136;2023-08-17T11:05:08;10.82;;;4.72;;
61085;SDS011;46967;48.876;2.136;2023-08-17T11:07:43;7.32;;;4.60;;
61085;SDS011;46967;48.876;2.136;2023-08-17T11:10:13;7.93;;;4.88;;
61085;SDS011;46967;48.876;2.136;2023-08-17T11:12:53;9.27;;;4.55;;
61085;SDS011;46967;48.876;2.136;2023-08-17T11:15:24;6.38;;;4.93;;
61085;SDS011;46967;48.876;2.136;2023-08-17T11:17:51;6.93;;;5.60;;
61085;SDS011;46967;48.876;2.136;2023-08-17T11:20:16;8.13;;;4.88;;
61085;SDS011;46967;48.876;2.136;2023-08-17T11:22:41;8.80;;;5.85;;
61085;SDS011;46967;48.876;2.136;2023-08-17T11:25:07;6.57;;;4.85;;
61085;SDS011;46967;48.876;2.136;2023-08-17T11:27:33;8.80;;;4.55;;
61085;SDS011;46967;48.876;2.136;2023-08-17T11:29:58;8.70;;;4.20;;
61085;SDS011;46967;48.876;2.136;2023-08-17T11:32:24;8.48;;;4.18;;
61085;SDS011;46967;48.876;2.136;2023-08-17T11:34:49;7.68;;;4.40;;
61085;SDS011;46967;48.876;2.136;2023-08-17T11:37:15;7.68;;;3.97;;
61085;SDS011;46967;48.876;2.136;2023-08-17T11:39:41;8.90;;;4.07;;
61085;SDS011;46967;48.876;2.136;2023-08-17T11:42:07;7.43;;;4.00;;
61085;SDS011;46967;48.876;2.136;2023-08-17T11:44:32;8.68;;;4.50;;
61085;SDS011;46967;48.876;2.136;2023-08-17T11:46:58;5.63;;;3.85;;
61085;SDS011;46967;48.876;2.136;2023-08-17T11:49:23;8.15;;;3.80;;
61085;SDS011;46967;48.876;2.136;2023-08-17T11:51:49;5.70;;;3.80;;
61085;SDS011;46967;48.876;2.136;2023-08-17T11:54:16;9.18;;;4.10;;
61085;SDS011;46967;48.876;2.136;2023-08-17T11:56:41;8.85;;;4.68;;
61085;SDS011;46967;48.876;2.136;2023-08-17T11:59:10;7.03;;;4.03;;
61085;SDS011;46967;48.876;2.136;2023-08-17T12:01:39;5.90;;;3.83;;
61085;SDS011;46967;48.876;2.136;2023-08-17T12:04:05;7.07;;;4.13;;
61085;SDS011;46967;48.876;2.136;2023-08-17T12:06:31;5.10;;;3.55;;
61085;SDS011;46967;48.876;2.136;2023-08-17T12:08:56;5.22;;;3.22;;
61085;SDS011;46967;48.876;2.136;2023-08-17T12:11:25;5.93;;;3.05;;
61085;SDS011;46967;48.876;2.136;2023-08-17T12:13:51;5.55;;;3.25;;
61085;SDS011;46967;48.876;2.136;2023-08-17T12:16:18;5.50;;;3.20;;
61085;SDS011;46967;48.876;2.136;2023-08-17T12:18:47;5.72;;;2.90;;
61085;SDS011;46967;48.876;2.136;2023-08-17T12:21:14;4.93;;;3.08;;
61085;SDS011;46967;48.876;2.136;2023-08-17T12:23:39;4.32;;;2.88;;
61085;SDS011;46967;48.876;2.136;2023-08-17T12:26:05;7.90;;;3.30;;
61085;SDS011;46967;48.876;2.136;2023-08-17T12:28:31;4.45;;;2.95;;
61085;SDS011;46967;48.876;2.136;2023-08-17T12:30:58;6.53;;;2.88;;
61085;SDS011;46967;48.876;2.136;2023-08-17T12:33:24;3.47;;;2.45;;
61085;SDS011;46967;48.876;2.136;2023-08-17T12:35:50;6.13;;;2.67;;
61085;SDS011;46967;48.876;2.136;2023-08-17T12:38:15;3.58;;;2.45;;
61085;SDS011;46967;48.876;2.136;2023-08-17T12:40:41;3.95;;;2.47;;
61085;SDS011;46967;48.876;2.136;2023-08-17T12:43:06;4.57;;;3.10;;
61085;SDS011;46967;48.876;2.136;2023-08-17T12:45:31;5.30;;;3.38;;
61085;SDS011;46967;48.876;2.136;2023-08-17T12:47:57;7.78;;;3.53;;
61085;SDS011;46967;48.876;2.136;2023-08-17T12:50:22;8.60;;;3.47;;
61085;SDS011;46967;48.876;2.136;2023-08-17T12:52:47;5.35;;;3.45;;
61085;SDS011;46967;48.876;2.136;2023-08-17T12:55:13;5.25;;;3.35;;
61085;SDS011;46967;48.876;2.136;2023-08-17T12:57:38;7.72;;;3.35;;
61085;SDS011;46967;48.876;2.136;2023-08-17T13:00:04;11.05;;;3.53;;
61085;SDS011;46967;48.876;2.136;2023-08-17T13:02:29;4.90;;;3.15;;
61085;SDS011;46967;48.876;2.136;2023-08-17T13:04:55;5.00;;;3.10;;
61085;SDS011;46967;48.876;2.136;2023-08-17T13:07:20;3.70;;;2.88;;
61085;SDS011;46967;48.876;2.136;2023-08-17T13:09:45;4.93;;;3.30;;
61085;SDS011;46967;48.876;2.136;2023-08-17T13:12:14;7.57;;;3.80;;
61085;SDS011;46967;48.876;2.136;2023-08-17T13:14:39;6.80;;;3.72;;
61085;SDS011;46967;48.876;2.136;2023-08-17T13:17:04;4.82;;;3.50;;
61085;SDS011;46967;48.876;2.136;2023-08-17T13:19:30;6.00;;;3.63;;
61085;SDS011;46967;48.876;2.136;2023-08-17T13:21:55;5.32;;;3.80;;
61085;SDS011;46967;48.876;2.136;2023-08-17T13:24:20;5.85;;;3.40;;
61085;SDS011;46967;48.876;2.136;2023-08-17T13:26:46;3.92;;;3.10;;
61085;SDS011;46967;48.876;2.136;2023-08-17T13:29:11;7.68;;;3.67;;
61085;SDS011;46967;48.876;2.136;2023-08-17T13:31:36;7.60;;;3.25;;
61085;SDS011;46967;48.876;2.136;2023-08-17T13:34:02;4.95;;;3.08;;
61085;SDS011;46967;48.876;2.136;2023-08-17T13:36:28;5.35;;;3.50;;
61085;SDS011;46967;48.876;2.136;2023-08-17T13:38:53;7.50;;;3.60;;
61085;SDS011;46967;48.876;2.136;2023-08-17T13:41:19;8.80;;;3.40;;
61085;SDS011;46967;48.876;2.136;2023-08-17T13:43:44;4.65;;;3.13;;
61085;SDS011;46967;48.876;2.136;2023-08-17T13:46:09;4.22;;;3.20;;
61085;SDS011;46967;48.876;2.136;2023-08-17T13:48:35;5.78;;;3.80;;
61085;SDS011;46967;48.876;2.136;2023-08-17T13:51:00;5.82;;;3.70;;
61085;SDS011;46967;48.876;2.136;2023-08-17T13:53:25;4.53;;;3.45;;
61085;SDS011;46967;48.876;2.136;2023-08-17T13:55:51;6.30;;;3.30;;
61085;SDS011;46967;48.876;2.136;2023-08-17T13:58:16;5.40;;;3.40;;
61085;SDS011;46967;48.876;2.136;2023-08-17T14:00:42;6.65;;;3.63;;
61085;SDS011;46967;48.876;2.136;2023-08-17T14:03:07;6.85;;;3.70;;
61085;SDS011;46967;48.876;2.136;2023-08-17T14:05:32;4.72;;;3.30;;
61085;SDS011;46967;48.876;2.136;2023-08-17T14:07:58;6.03;;;3.30;;
61085;SDS011;46967;48.876;2.136;2023-08-17T14:10:23;5.00;;;3.60;;
61085;SDS011;46967;48.876;2.136;2023-08-17T14:12:49;4.30;;;3.20;;
61085;SDS011;46967;48.876;2.136;2023-08-17T14:15:14;5.82;;;3.33;;
61085;SDS011;46967;48.876;2.136;2023-08-17T14:17:39;8.60;;;3.40;;
61085;SDS011;46967;48.876;2.136;2023-08-17T14:20:05;4.25;;;3.10;;
61085;SDS011;46967;48.876;2.136;2023-08-17T14:22:30;7.03;;;3.50;;
61085;SDS011;46967;48.876;2.136;2023-08-17T14:24:56;8.40;;;3.22;;
61085;SDS011;46967;48.876;2.136;2023-08-17T14:27:21;3.97;;;2.90;;
61085;SDS011;46967;48.876;2.136;2023-08-17T14:29:46;4.20;;;3.17;;
61085;SDS011;46967;48.876;2.136;2023-08-17T14:32:12;5.95;;;2.95;;
61085;SDS011;46967;48.876;2.136;2023-08-17T14:34:37;5.75;;;3.38;;
61085;SDS011;46967;48.876;2.136;2023-08-17T14:37:03;4.55;;;3.42;;
61085;SDS011;46967;48.876;2.136;2023-08-17T14:39:28;5.75;;;3.45;;
61085;SDS011;46967;48.876;2.136;2023-08-17T14:41:53;4.77;;;3.03;;
61085;SDS011;46967;48.876;2.136;2023-08-17T14:44:19;5.43;;;3.28;;
61085;SDS011;46967;48.876;2.136;2023-08-17T14:46:44;6.37;;;4.00;;
61085;SDS011;46967;48.876;2.136;2023-08-17T14:49:09;8.07;;;3.75;;
61085;SDS011;46967;48.876;2.136;2023-08-17T14:51:38;12.38;;;3.45;;